sensor_id;sensor_type;location;lat;lon;timestamp;temperature;humidity
12477;DHT22;6303;51.504;6.300;2022-08-19T00:01:20;31.00;54.90
12477;DHT22;6303;51.504;6.300;2022-08-19T00:03:48;31.00;54.80
12477;DHT22;6303;51.504;6.300;2022-08-19T00:06:15;31.00;55.40
12477;DHT22;6303;51.504;6.300;2022-08-19T00:08:43;31.00;54.80
12477;DHT22;6303;51.504;6.300;2022-08-19T00:11:10;31.00;54.80
12477;DHT22;6303;51.504;6.300;2022-08-19T00:13:38;31.00;54.70
12477;DHT22;6303;51.504;6.300;2022-08-19T00:16:05;31.00;54.70
12477;DHT22;6303;51.504;6.300;2022-08-19T00:18:34;31.00;54.70
12477;DHT22;6303;51.504;6.300;2022-08-19T00:21:02;31.00;54.60
12477;DHT22;6303;51.504;6.300;2022-08-19T00:23:35;31.00;54.60
12477;DHT22;6303;51.504;6.300;2022-08-19T00:26:03;31.00;54.60
12477;DHT22;6303;51.504;6.300;2022-08-19T00:28:30;31.00;54.50
12477;DHT22;6303;51.504;6.300;2022-08-19T00:30:57;30.90;54.40
12477;DHT22;6303;51.504;6.300;2022-08-19T00:33:24;31.00;54.40
12477;DHT22;6303;51.504;6.300;2022-08-19T00:35:55;31.00;54.40
12477;DHT22;6303;51.504;6.300;2022-08-19T00:38:22;30.90;54.30
12477;DHT22;6303;51.504;6.300;2022-08-19T00:40:49;31.00;54.30
12477;DHT22;6303;51.504;6.300;2022-08-19T00:43:20;30.90;54.20
12477;DHT22;6303;51.504;6.300;2022-08-19T00:45:47;30.90;54.80
12477;DHT22;6303;51.504;6.300;2022-08-19T00:48:16;30.90;54.20
12477;DHT22;6303;51.504;6.300;2022-08-19T00:50:44;30.90;54.10
12477;DHT22;6303;51.504;6.300;2022-08-19T00:53:15;30.90;54.10
12477;DHT22;6303;51.504;6.300;2022-08-19T00:55:45;30.90;54.10
12477;DHT22;6303;51.504;6.300;2022-08-19T00:58:15;30.90;54.00
12477;DHT22;6303;51.504;6.300;2022-08-19T01:00:43;30.90;54.00
12477;DHT22;6303;51.504;6.300;2022-08-19T01:03:14;30.90;53.90
12477;DHT22;6303;51.504;6.300;2022-08-19T01:05:43;30.90;53.90
12477;DHT22;6303;51.504;6.300;2022-08-19T01:08:11;30.90;53.90
12477;DHT22;6303;51.504;6.300;2022-08-19T01:10:41;30.90;53.80
12477;DHT22;6303;51.504;6.300;2022-08-19T01:13:10;30.90;54.50
12477;DHT22;6303;51.504;6.300;2022-08-19T01:15:42;30.90;53.80
12477;DHT22;6303;51.504;6.300;2022-08-19T01:18:12;30.90;53.70
12477;DHT22;6303;51.504;6.300;2022-08-19T01:20:41;30.90;53.70
12477;DHT22;6303;51.504;6.300;2022-08-19T01:23:10;30.90;53.70
12477;DHT22;6303;51.504;6.300;2022-08-19T01:25:42;30.90;53.60
12477;DHT22;6303;51.504;6.300;2022-08-19T01:28:15;30.80;53.50
12477;DHT22;6303;51.504;6.300;2022-08-19T01:30:44;30.80;53.40
12477;DHT22;6303;51.504;6.300;2022-08-19T01:33:11;30.80;53.40
12477;DHT22;6303;51.504;6.300;2022-08-19T01:35:39;30.80;53.40
12477;DHT22;6303;51.504;6.300;2022-08-19T01:38:09;30.80;53.40
12477;DHT22;6303;51.504;6.300;2022-08-19T01:40:39;30.80;53.40
12477;DHT22;6303;51.504;6.300;2022-08-19T01:43:07;30.80;53.40
12477;DHT22;6303;51.504;6.300;2022-08-19T01:45:35;30.80;53.30
12477;DHT22;6303;51.504;6.300;2022-08-19T01:48:03;30.80;53.30
12477;DHT22;6303;51.504;6.300;2022-08-19T01:50:31;30.80;53.30
12477;DHT22;6303;51.504;6.300;2022-08-19T01:52:59;30.80;53.30
12477;DHT22;6303;51.504;6.300;2022-08-19T01:55:28;30.80;53.30
12477;DHT22;6303;51.504;6.300;2022-08-19T01:57:58;30.80;53.20
12477;DHT22;6303;51.504;6.300;2022-08-19T02:00:29;30.80;53.10
12477;DHT22;6303;51.504;6.300;2022-08-19T02:02:57;30.70;53.00
12477;DHT22;6303;51.504;6.300;2022-08-19T02:05:24;30.80;53.00
12477;DHT22;6303;51.504;6.300;2022-08-19T02:07:51;30.70;53.00
12477;DHT22;6303;51.504;6.300;2022-08-19T02:10:20;30.70;52.90
12477;DHT22;6303;51.504;6.300;2022-08-19T02:12:49;30.70;52.90
12477;DHT22;6303;51.504;6.300;2022-08-19T02:15:17;30.70;52.90
12477;DHT22;6303;51.504;6.300;2022-08-19T02:17:44;30.70;52.80
12477;DHT22;6303;51.504;6.300;2022-08-19T02:20:12;30.70;52.80
12477;DHT22;6303;51.504;6.300;2022-08-19T02:22:40;30.70;52.80
12477;DHT22;6303;51.504;6.300;2022-08-19T02:25:08;30.70;52.80
12477;DHT22;6303;51.504;6.300;2022-08-19T02:27:35;30.70;52.80
12477;DHT22;6303;51.504;6.300;2022-08-19T02:30:06;30.70;52.80
12477;DHT22;6303;51.504;6.300;2022-08-19T02:32:33;30.70;52.80
12477;DHT22;6303;51.504;6.300;2022-08-19T02:35:01;30.70;52.80
12477;DHT22;6303;51.504;6.300;2022-08-19T02:37:28;30.70;52.80
12477;DHT22;6303;51.504;6.300;2022-08-19T02:40:13;30.70;52.80
12477;DHT22;6303;51.504;6.300;2022-08-19T02:42:40;30.20;52.40
12477;DHT22;6303;51.504;6.300;2022-08-19T02:45:10;30.70;52.80
12477;DHT22;6303;51.504;6.300;2022-08-19T02:47:37;30.70;52.80
12477;DHT22;6303;51.504;6.300;2022-08-19T02:50:04;30.70;52.80
12477;DHT22;6303;51.504;6.300;2022-08-19T02:52:33;30.70;52.70
12477;DHT22;6303;51.504;6.300;2022-08-19T02:55:00;30.70;52.70
12477;DHT22;6303;51.504;6.300;2022-08-19T02:57:27;30.70;52.70
12477;DHT22;6303;51.504;6.300;2022-08-19T02:59:57;30.60;52.60
12477;DHT22;6303;51.504;6.300;2022-08-19T03:02:25;30.60;52.60
12477;DHT22;6303;51.504;6.300;2022-08-19T03:04:53;30.60;52.60
12477;DHT22;6303;51.504;6.300;2022-08-19T03:07:19;30.60;52.60
12477;DHT22;6303;51.504;6.300;2022-08-19T03:09:46;30.60;52.00
12477;DHT22;6303;51.504;6.300;2022-08-19T03:12:14;30.60;52.50
12477;DHT22;6303;51.504;6.300;2022-08-19T03:14:41;30.60;52.50
12477;DHT22;6303;51.504;6.300;2022-08-19T03:17:07;30.60;52.50
12477;DHT22;6303;51.504;6.300;2022-08-19T03:19:36;30.60;52.50
12477;DHT22;6303;51.504;6.300;2022-08-19T03:22:03;30.60;52.50
12477;DHT22;6303;51.504;6.300;2022-08-19T03:24:31;30.60;52.50
12477;DHT22;6303;51.504;6.300;2022-08-19T03:26:58;30.60;52.50
12477;DHT22;6303;51.504;6.300;2022-08-19T03:29:26;30.60;52.50
12477;DHT22;6303;51.504;6.300;2022-08-19T03:31:53;30.60;52.60
12477;DHT22;6303;51.504;6.300;2022-08-19T03:34:23;30.60;52.60
12477;DHT22;6303;51.504;6.300;2022-08-19T03:36:53;30.60;52.60
12477;DHT22;6303;51.504;6.300;2022-08-19T03:39:21;30.60;52.60
12477;DHT22;6303;51.504;6.300;2022-08-19T03:41:49;30.60;52.60
12477;DHT22;6303;51.504;6.300;2022-08-19T03:44:18;30.60;52.70
12477;DHT22;6303;51.504;6.300;2022-08-19T03:46:47;30.60;52.70
12477;DHT22;6303;51.504;6.300;2022-08-19T03:49:14;30.60;52.80
12477;DHT22;6303;51.504;6.300;2022-08-19T03:51:42;30.60;52.80
12477;DHT22;6303;51.504;6.300;2022-08-19T03:54:13;30.60;52.80
12477;DHT22;6303;51.504;6.300;2022-08-19T03:56:42;30.60;52.70
12477;DHT22;6303;51.504;6.300;2022-08-19T03:59:13;30.60;52.70
12477;DHT22;6303;51.504;6.300;2022-08-19T04:01:40;30.60;52.70
12477;DHT22;6303;51.504;6.300;2022-08-19T04:04:07;30.60;52.70
12477;DHT22;6303;51.504;6.300;2022-08-19T04:06:36;30.50;52.70
12477;DHT22;6303;51.504;6.300;2022-08-19T04:09:05;30.50;52.70
12477;DHT22;6303;51.504;6.300;2022-08-19T04:11:36;30.50;52.70
12477;DHT22;6303;51.504;6.300;2022-08-19T04:14:07;30.50;52.80
12477;DHT22;6303;51.504;6.300;2022-08-19T04:16:34;30.50;52.80
12477;DHT22;6303;51.504;6.300;2022-08-19T04:19:03;30.50;53.00
12477;DHT22;6303;51.504;6.300;2022-08-19T04:21:32;30.50;53.10
12477;DHT22;6303;51.504;6.300;2022-08-19T04:23:59;30.50;53.20
12477;DHT22;6303;51.504;6.300;2022-08-19T04:26:28;30.50;53.20
12477;DHT22;6303;51.504;6.300;2022-08-19T04:28:59;30.40;53.20
12477;DHT22;6303;51.504;6.300;2022-08-19T04:31:28;30.40;53.30
12477;DHT22;6303;51.504;6.300;2022-08-19T04:33:57;30.40;53.30
12477;DHT22;6303;51.504;6.300;2022-08-19T04:36:27;30.50;53.40
12477;DHT22;6303;51.504;6.300;2022-08-19T04:38:56;30.50;53.40
12477;DHT22;6303;51.504;6.300;2022-08-19T04:41:23;30.50;53.40
12477;DHT22;6303;51.504;6.300;2022-08-19T04:44:10;30.40;53.40
12477;DHT22;6303;51.504;6.300;2022-08-19T04:46:37;30.40;53.40
12477;DHT22;6303;51.504;6.300;2022-08-19T04:49:06;30.40;53.50
12477;DHT22;6303;51.504;6.300;2022-08-19T04:51:34;30.40;53.50
12477;DHT22;6303;51.504;6.300;2022-08-19T04:54:03;30.40;53.50
12477;DHT22;6303;51.504;6.300;2022-08-19T04:56:30;30.40;53.50
12477;DHT22;6303;51.504;6.300;2022-08-19T04:58:57;30.40;53.50
12477;DHT22;6303;51.504;6.300;2022-08-19T05:01:31;30.30;53.50
12477;DHT22;6303;51.504;6.300;2022-08-19T05:03:59;30.30;53.50
12477;DHT22;6303;51.504;6.300;2022-08-19T05:06:26;30.30;53.60
12477;DHT22;6303;51.504;6.300;2022-08-19T05:08:54;30.30;53.60
12477;DHT22;6303;51.504;6.300;2022-08-19T05:11:23;30.20;53.60
12477;DHT22;6303;51.504;6.300;2022-08-19T05:13:51;30.20;53.70
12477;DHT22;6303;51.504;6.300;2022-08-19T05:16:21;30.20;53.70
12477;DHT22;6303;51.504;6.300;2022-08-19T05:18:50;30.20;53.70
12477;DHT22;6303;51.504;6.300;2022-08-19T05:21:35;30.20;53.70
12477;DHT22;6303;51.504;6.300;2022-08-19T05:24:21;30.20;53.70
12477;DHT22;6303;51.504;6.300;2022-08-19T05:26:50;30.20;53.80
12477;DHT22;6303;51.504;6.300;2022-08-19T05:29:19;30.20;53.90
12477;DHT22;6303;51.504;6.300;2022-08-19T05:31:47;30.20;53.90
12477;DHT22;6303;51.504;6.300;2022-08-19T05:34:16;30.20;54.00
12477;DHT22;6303;51.504;6.300;2022-08-19T05:36:45;30.20;54.00
12477;DHT22;6303;51.504;6.300;2022-08-19T05:39:15;30.20;54.20
12477;DHT22;6303;51.504;6.300;2022-08-19T05:41:42;30.20;54.30
12477;DHT22;6303;51.504;6.300;2022-08-19T05:44:10;30.10;54.30
12477;DHT22;6303;51.504;6.300;2022-08-19T05:46:37;30.20;54.40
12477;DHT22;6303;51.504;6.300;2022-08-19T05:49:05;33.00;56.30
12477;DHT22;6303;51.504;6.300;2022-08-19T05:51:35;30.10;54.50
12477;DHT22;6303;51.504;6.300;2022-08-19T05:54:04;30.10;54.60
12477;DHT22;6303;51.504;6.300;2022-08-19T05:56:31;30.10;54.70
12477;DHT22;6303;51.504;6.300;2022-08-19T05:59:02;30.10;54.80
12477;DHT22;6303;51.504;6.300;2022-08-19T06:01:29;30.10;54.80
12477;DHT22;6303;51.504;6.300;2022-08-19T06:03:56;30.10;54.90
12477;DHT22;6303;51.504;6.300;2022-08-19T06:06:23;30.10;55.00
12477;DHT22;6303;51.504;6.300;2022-08-19T06:08:52;30.10;55.10
12477;DHT22;6303;51.504;6.300;2022-08-19T06:11:21;30.10;55.30
12477;DHT22;6303;51.504;6.300;2022-08-19T06:13:51;30.10;55.40
12477;DHT22;6303;51.504;6.300;2022-08-19T06:16:18;30.10;55.50
12477;DHT22;6303;51.504;6.300;2022-08-19T06:18:48;30.20;55.70
12477;DHT22;6303;51.504;6.300;2022-08-19T06:21:18;30.00;55.60
12477;DHT22;6303;51.504;6.300;2022-08-19T06:23:45;30.10;55.80
12477;DHT22;6303;51.504;6.300;2022-08-19T06:26:15;30.10;55.90
12477;DHT22;6303;51.504;6.300;2022-08-19T06:28:42;30.00;56.00
12477;DHT22;6303;51.504;6.300;2022-08-19T06:31:13;30.00;56.10
12477;DHT22;6303;51.504;6.300;2022-08-19T06:33:42;30.10;56.20
12477;DHT22;6303;51.504;6.300;2022-08-19T06:36:18;30.00;56.40
12477;DHT22;6303;51.504;6.300;2022-08-19T06:38:46;30.00;56.60
12477;DHT22;6303;51.504;6.300;2022-08-19T06:41:14;30.00;56.80
12477;DHT22;6303;51.504;6.300;2022-08-19T06:43:41;29.90;56.90
12477;DHT22;6303;51.504;6.300;2022-08-19T06:46:13;29.90;57.10
12477;DHT22;6303;51.504;6.300;2022-08-19T06:48:41;29.80;57.20
12477;DHT22;6303;51.504;6.300;2022-08-19T06:51:08;29.80;57.40
12477;DHT22;6303;51.504;6.300;2022-08-19T06:53:35;29.80;57.60
12477;DHT22;6303;51.504;6.300;2022-08-19T06:56:02;29.90;57.80
12477;DHT22;6303;51.504;6.300;2022-08-19T06:58:31;29.90;58.00
12477;DHT22;6303;51.504;6.300;2022-08-19T07:01:00;29.80;58.10
12477;DHT22;6303;51.504;6.300;2022-08-19T07:03:29;29.90;58.30
12477;DHT22;6303;51.504;6.300;2022-08-19T07:05:58;29.90;58.30
12477;DHT22;6303;51.504;6.300;2022-08-19T07:08:29;29.90;58.20
12477;DHT22;6303;51.504;6.300;2022-08-19T07:10:56;29.90;58.10
12477;DHT22;6303;51.504;6.300;2022-08-19T07:13:23;29.90;58.10
12477;DHT22;6303;51.504;6.300;2022-08-19T07:15:52;29.90;58.10
12477;DHT22;6303;51.504;6.300;2022-08-19T07:18:19;29.90;58.00
12477;DHT22;6303;51.504;6.300;2022-08-19T07:20:47;29.90;58.00
12477;DHT22;6303;51.504;6.300;2022-08-19T07:23:14;29.90;58.00
12477;DHT22;6303;51.504;6.300;2022-08-19T07:25:42;29.90;57.90
12477;DHT22;6303;51.504;6.300;2022-08-19T07:28:09;31.30;58.70
12477;DHT22;6303;51.504;6.300;2022-08-19T07:30:37;29.90;57.80
12477;DHT22;6303;51.504;6.300;2022-08-19T07:33:07;29.90;57.70
12477;DHT22;6303;51.504;6.300;2022-08-19T07:35:34;29.90;57.80
12477;DHT22;6303;51.504;6.300;2022-08-19T07:38:02;29.90;57.80
12477;DHT22;6303;51.504;6.300;2022-08-19T07:40:30;29.90;57.70
12477;DHT22;6303;51.504;6.300;2022-08-19T07:42:57;29.90;57.70
12477;DHT22;6303;51.504;6.300;2022-08-19T07:45:24;29.90;57.60
12477;DHT22;6303;51.504;6.300;2022-08-19T07:47:52;29.90;57.50
12477;DHT22;6303;51.504;6.300;2022-08-19T07:50:21;29.90;57.50
12477;DHT22;6303;51.504;6.300;2022-08-19T07:52:49;29.90;57.60
12477;DHT22;6303;51.504;6.300;2022-08-19T07:55:18;29.90;57.70
12477;DHT22;6303;51.504;6.300;2022-08-19T07:57:45;29.90;57.70
12477;DHT22;6303;51.504;6.300;2022-08-19T08:00:14;29.90;57.60
12477;DHT22;6303;51.504;6.300;2022-08-19T08:02:41;29.90;57.50
12477;DHT22;6303;51.504;6.300;2022-08-19T08:05:09;30.00;57.60
12477;DHT22;6303;51.504;6.300;2022-08-19T08:07:58;30.00;57.70
12477;DHT22;6303;51.504;6.300;2022-08-19T08:10:44;30.00;57.50
12477;DHT22;6303;51.504;6.300;2022-08-19T08:13:11;30.00;57.50
12477;DHT22;6303;51.504;6.300;2022-08-19T08:15:38;30.10;57.50
12477;DHT22;6303;51.504;6.300;2022-08-19T08:18:05;30.10;57.50
12477;DHT22;6303;51.504;6.300;2022-08-19T08:20:33;30.10;57.30
12477;DHT22;6303;51.504;6.300;2022-08-19T08:23:01;30.20;57.40
12477;DHT22;6303;51.504;6.300;2022-08-19T08:25:46;30.20;57.00
12477;DHT22;6303;51.504;6.300;2022-08-19T08:28:14;30.20;56.90
12477;DHT22;6303;51.504;6.300;2022-08-19T08:30:41;30.20;57.60
12477;DHT22;6303;51.504;6.300;2022-08-19T08:33:09;30.20;56.80
12477;DHT22;6303;51.504;6.300;2022-08-19T08:35:36;30.20;56.80
12477;DHT22;6303;51.504;6.300;2022-08-19T08:38:05;30.20;56.70
12477;DHT22;6303;51.504;6.300;2022-08-19T08:40:39;30.20;56.70
12477;DHT22;6303;51.504;6.300;2022-08-19T08:43:13;30.30;56.60
12477;DHT22;6303;51.504;6.300;2022-08-19T08:45:50;30.30;56.40
12477;DHT22;6303;51.504;6.300;2022-08-19T08:48:24;30.30;56.20
12477;DHT22;6303;51.504;6.300;2022-08-19T08:50:54;30.30;56.00
12477;DHT22;6303;51.504;6.300;2022-08-19T08:53:25;30.30;55.90
12477;DHT22;6303;51.504;6.300;2022-08-19T08:55:52;30.30;55.80
12477;DHT22;6303;51.504;6.300;2022-08-19T08:58:26;30.30;55.80
12477;DHT22;6303;51.504;6.300;2022-08-19T09:00:55;30.30;55.90
12477;DHT22;6303;51.504;6.300;2022-08-19T09:03:23;30.30;56.10
12477;DHT22;6303;51.504;6.300;2022-08-19T09:05:57;30.30;56.20
12477;DHT22;6303;51.504;6.300;2022-08-19T09:08:36;30.30;55.90
12477;DHT22;6303;51.504;6.300;2022-08-19T09:11:08;30.40;55.90
12477;DHT22;6303;51.504;6.300;2022-08-19T09:13:49;30.40;55.50
12477;DHT22;6303;51.504;6.300;2022-08-19T09:16:21;30.40;55.30
12477;DHT22;6303;51.504;6.300;2022-08-19T09:18:55;30.40;55.10
12477;DHT22;6303;51.504;6.300;2022-08-19T09:21:23;30.50;55.30
12477;DHT22;6303;51.504;6.300;2022-08-19T09:23:52;30.50;55.40
12477;DHT22;6303;51.504;6.300;2022-08-19T09:26:22;30.50;55.30
12477;DHT22;6303;51.504;6.300;2022-08-19T09:28:51;30.50;54.90
12477;DHT22;6303;51.504;6.300;2022-08-19T09:31:20;30.60;55.00
12477;DHT22;6303;51.504;6.300;2022-08-19T09:33:48;30.60;55.00
12477;DHT22;6303;51.504;6.300;2022-08-19T09:36:17;30.60;54.90
12477;DHT22;6303;51.504;6.300;2022-08-19T09:38:45;30.60;55.00
12477;DHT22;6303;51.504;6.300;2022-08-19T09:41:15;30.60;55.10
12477;DHT22;6303;51.504;6.300;2022-08-19T09:43:46;30.60;55.20
12477;DHT22;6303;51.504;6.300;2022-08-19T09:46:13;30.60;56.20
12477;DHT22;6303;51.504;6.300;2022-08-19T09:48:41;30.60;55.40
12477;DHT22;6303;51.504;6.300;2022-08-19T09:51:12;30.60;55.10
12477;DHT22;6303;51.504;6.300;2022-08-19T09:53:42;30.60;54.90
12477;DHT22;6303;51.504;6.300;2022-08-19T09:56:09;30.60;54.70
12477;DHT22;6303;51.504;6.300;2022-08-19T09:58:39;30.60;54.60
12477;DHT22;6303;51.504;6.300;2022-08-19T10:01:07;30.60;54.30
12477;DHT22;6303;51.504;6.300;2022-08-19T10:03:36;30.70;54.40
12477;DHT22;6303;51.504;6.300;2022-08-19T10:06:04;30.70;54.30
12477;DHT22;6303;51.504;6.300;2022-08-19T10:08:34;30.70;54.10
12477;DHT22;6303;51.504;6.300;2022-08-19T10:11:02;30.70;54.10
12477;DHT22;6303;51.504;6.300;2022-08-19T10:13:31;30.70;54.00
12477;DHT22;6303;51.504;6.300;2022-08-19T10:16:07;30.70;54.20
12477;DHT22;6303;51.504;6.300;2022-08-19T10:18:35;30.80;54.10
12477;DHT22;6303;51.504;6.300;2022-08-19T10:21:05;30.80;54.20
12477;DHT22;6303;51.504;6.300;2022-08-19T10:23:35;30.80;54.40
12477;DHT22;6303;51.504;6.300;2022-08-19T10:26:03;30.80;54.30
12477;DHT22;6303;51.504;6.300;2022-08-19T10:28:32;30.80;54.20
12477;DHT22;6303;51.504;6.300;2022-08-19T10:31:05;30.80;54.20
12477;DHT22;6303;51.504;6.300;2022-08-19T10:33:33;30.70;54.10
12477;DHT22;6303;51.504;6.300;2022-08-19T10:36:01;30.80;54.20
12477;DHT22;6303;51.504;6.300;2022-08-19T10:38:29;30.80;53.90
12477;DHT22;6303;51.504;6.300;2022-08-19T10:40:57;30.80;53.30
12477;DHT22;6303;51.504;6.300;2022-08-19T10:43:25;30.80;52.90
12477;DHT22;6303;51.504;6.300;2022-08-19T10:45:53;30.80;52.50
12477;DHT22;6303;51.504;6.300;2022-08-19T10:48:23;30.80;52.60
12477;DHT22;6303;51.504;6.300;2022-08-19T10:50:50;30.80;53.20
12477;DHT22;6303;51.504;6.300;2022-08-19T10:53:35;28.40;51.70
12477;DHT22;6303;51.504;6.300;2022-08-19T10:56:03;30.80;53.50
12477;DHT22;6303;51.504;6.300;2022-08-19T10:58:50;30.70;53.80
12477;DHT22;6303;51.504;6.300;2022-08-19T11:01:17;30.70;53.50
12477;DHT22;6303;51.504;6.300;2022-08-19T11:03:45;30.80;53.60
12477;DHT22;6303;51.504;6.300;2022-08-19T11:06:12;30.80;53.20
12477;DHT22;6303;51.504;6.300;2022-08-19T11:08:39;30.80;53.10
12477;DHT22;6303;51.504;6.300;2022-08-19T11:11:07;30.80;52.80
12477;DHT22;6303;51.504;6.300;2022-08-19T11:13:36;30.90;52.80
12477;DHT22;6303;51.504;6.300;2022-08-19T11:16:06;30.90;52.20
12477;DHT22;6303;51.504;6.300;2022-08-19T11:18:35;30.90;51.80
12477;DHT22;6303;51.504;6.300;2022-08-19T11:21:09;30.90;51.60
12477;DHT22;6303;51.504;6.300;2022-08-19T11:23:36;30.90;51.30
12477;DHT22;6303;51.504;6.300;2022-08-19T11:26:04;30.90;51.20
12477;DHT22;6303;51.504;6.300;2022-08-19T11:28:31;30.90;51.30
12477;DHT22;6303;51.504;6.300;2022-08-19T11:30:58;30.90;51.20
12477;DHT22;6303;51.504;6.300;2022-08-19T11:33:25;30.90;50.80
12477;DHT22;6303;51.504;6.300;2022-08-19T11:35:52;30.90;50.80
12477;DHT22;6303;51.504;6.300;2022-08-19T11:38:21;30.90;50.50
12477;DHT22;6303;51.504;6.300;2022-08-19T11:40:55;30.90;51.20
12477;DHT22;6303;51.504;6.300;2022-08-19T11:43:22;30.90;50.80
12477;DHT22;6303;51.504;6.300;2022-08-19T11:45:49;30.90;50.80
12477;DHT22;6303;51.504;6.300;2022-08-19T11:48:17;30.90;50.90
12477;DHT22;6303;51.504;6.300;2022-08-19T11:50:48;30.90;50.90
12477;DHT22;6303;51.504;6.300;2022-08-19T11:53:16;30.90;50.80
12477;DHT22;6303;51.504;6.300;2022-08-19T11:55:46;30.90;50.70
12477;DHT22;6303;51.504;6.300;2022-08-19T11:58:16;30.90;50.70
12477;DHT22;6303;51.504;6.300;2022-08-19T12:00:43;30.90;50.80
12477;DHT22;6303;51.504;6.300;2022-08-19T12:03:12;30.90;50.80
12477;DHT22;6303;51.504;6.300;2022-08-19T12:05:40;30.90;50.80
12477;DHT22;6303;51.504;6.300;2022-08-19T12:08:08;31.00;50.60
12477;DHT22;6303;51.504;6.300;2022-08-19T12:10:35;30.90;50.30
12477;DHT22;6303;51.504;6.300;2022-08-19T12:13:04;30.90;50.00
12477;DHT22;6303;51.504;6.300;2022-08-19T12:15:35;30.90;50.20
12477;DHT22;6303;51.504;6.300;2022-08-19T12:18:03;30.90;50.70
12477;DHT22;6303;51.504;6.300;2022-08-19T12:20:30;30.90;51.00
12477;DHT22;6303;51.504;6.300;2022-08-19T12:22:57;30.90;51.10
12477;DHT22;6303;51.504;6.300;2022-08-19T12:25:25;30.90;51.30
12477;DHT22;6303;51.504;6.300;2022-08-19T12:27:52;30.90;51.50
12477;DHT22;6303;51.504;6.300;2022-08-19T12:30:21;30.90;51.70
12477;DHT22;6303;51.504;6.300;2022-08-19T12:32:48;30.90;51.80
12477;DHT22;6303;51.504;6.300;2022-08-19T12:35:17;30.90;52.20
12477;DHT22;6303;51.504;6.300;2022-08-19T12:37:46;30.90;52.40
12477;DHT22;6303;51.504;6.300;2022-08-19T12:40:15;30.90;52.60
12477;DHT22;6303;51.504;6.300;2022-08-19T12:42:43;30.90;52.60
12477;DHT22;6303;51.504;6.300;2022-08-19T12:45:12;31.00;53.00
12477;DHT22;6303;51.504;6.300;2022-08-19T12:47:41;31.00;52.90
12477;DHT22;6303;51.504;6.300;2022-08-19T12:50:09;31.00;52.90
12477;DHT22;6303;51.504;6.300;2022-08-19T12:52:36;31.00;52.60
12477;DHT22;6303;51.504;6.300;2022-08-19T12:55:05;31.00;52.10
12477;DHT22;6303;51.504;6.300;2022-08-19T12:57:33;31.00;52.10
12477;DHT22;6303;51.504;6.300;2022-08-19T13:00:04;31.00;52.10
12477;DHT22;6303;51.504;6.300;2022-08-19T13:02:35;31.00;52.20
12477;DHT22;6303;51.504;6.300;2022-08-19T13:05:06;31.00;52.10
12477;DHT22;6303;51.504;6.300;2022-08-19T13:07:34;31.00;52.20
12477;DHT22;6303;51.504;6.300;2022-08-19T13:10:02;31.00;51.90
12477;DHT22;6303;51.504;6.300;2022-08-19T13:12:31;30.90;51.60
12477;DHT22;6303;51.504;6.300;2022-08-19T13:14:58;31.00;51.60
12477;DHT22;6303;51.504;6.300;2022-08-19T13:17:26;31.00;51.40
12477;DHT22;6303;51.504;6.300;2022-08-19T13:19:53;31.00;51.40
12477;DHT22;6303;51.504;6.300;2022-08-19T13:22:22;30.90;50.90
12477;DHT22;6303;51.504;6.300;2022-08-19T13:24:49;30.90;50.20
12477;DHT22;6303;51.504;6.300;2022-08-19T13:27:16;30.90;49.60
12477;DHT22;6303;51.504;6.300;2022-08-19T13:29:43;31.00;49.30
12477;DHT22;6303;51.504;6.300;2022-08-19T13:32:24;31.00;49.30
12477;DHT22;6303;51.504;6.300;2022-08-19T13:35:09;31.00;49.40
12477;DHT22;6303;51.504;6.300;2022-08-19T13:37:37;31.00;50.30
12477;DHT22;6303;51.504;6.300;2022-08-19T13:40:12;30.90;50.10
12477;DHT22;6303;51.504;6.300;2022-08-19T13:42:42;31.00;50.40
12477;DHT22;6303;51.504;6.300;2022-08-19T13:45:10;31.00;50.90
12477;DHT22;6303;51.504;6.300;2022-08-19T13:47:37;31.10;51.10
12477;DHT22;6303;51.504;6.300;2022-08-19T13:50:09;28.40;49.40
12477;DHT22;6303;51.504;6.300;2022-08-19T13:52:39;31.20;51.00
12477;DHT22;6303;51.504;6.300;2022-08-19T13:55:08;31.20;50.50
12477;DHT22;6303;51.504;6.300;2022-08-19T13:57:36;31.20;50.30
12477;DHT22;6303;51.504;6.300;2022-08-19T14:00:06;31.20;49.90
12477;DHT22;6303;51.504;6.300;2022-08-19T14:02:34;31.20;49.30
12477;DHT22;6303;51.504;6.300;2022-08-19T14:05:01;31.20;49.30
12477;DHT22;6303;51.504;6.300;2022-08-19T14:07:28;31.20;50.50
12477;DHT22;6303;51.504;6.300;2022-08-19T14:09:56;31.20;50.20
12477;DHT22;6303;51.504;6.300;2022-08-19T14:12:24;31.20;50.30
12477;DHT22;6303;51.504;6.300;2022-08-19T14:14:51;31.20;50.70
12477;DHT22;6303;51.504;6.300;2022-08-19T14:17:18;31.20;50.30
12477;DHT22;6303;51.504;6.300;2022-08-19T14:19:45;31.20;49.90
12477;DHT22;6303;51.504;6.300;2022-08-19T14:22:12;31.30;49.90
12477;DHT22;6303;51.504;6.300;2022-08-19T14:24:39;31.20;50.10
12477;DHT22;6303;51.504;6.300;2022-08-19T14:27:07;31.30;50.30
12477;DHT22;6303;51.504;6.300;2022-08-19T14:29:34;31.30;50.10
12477;DHT22;6303;51.504;6.300;2022-08-19T14:32:02;31.20;49.90
12477;DHT22;6303;51.504;6.300;2022-08-19T14:34:29;31.30;50.30
12477;DHT22;6303;51.504;6.300;2022-08-19T14:36:57;31.30;50.50
12477;DHT22;6303;51.504;6.300;2022-08-19T14:39:24;31.30;51.10
12477;DHT22;6303;51.504;6.300;2022-08-19T14:41:51;31.30;51.40
12477;DHT22;6303;51.504;6.300;2022-08-19T14:44:19;31.20;51.40
12477;DHT22;6303;51.504;6.300;2022-08-19T14:46:48;30.30;50.90
12477;DHT22;6303;51.504;6.300;2022-08-19T14:49:16;31.20;51.80
12477;DHT22;6303;51.504;6.300;2022-08-19T14:51:44;31.20;51.90
12477;DHT22;6303;51.504;6.300;2022-08-19T14:54:12;31.30;52.00
12477;DHT22;6303;51.504;6.300;2022-08-19T14:56:40;31.20;51.90
12477;DHT22;6303;51.504;6.300;2022-08-19T14:59:07;31.20;52.00
12477;DHT22;6303;51.504;6.300;2022-08-19T15:01:35;31.20;52.30
12477;DHT22;6303;51.504;6.300;2022-08-19T15:04:03;31.20;52.20
12477;DHT22;6303;51.504;6.300;2022-08-19T15:06:30;31.20;52.50
12477;DHT22;6303;51.504;6.300;2022-08-19T15:08:57;31.20;52.40
12477;DHT22;6303;51.504;6.300;2022-08-19T15:11:25;31.30;52.10
12477;DHT22;6303;51.504;6.300;2022-08-19T15:13:54;31.30;52.10
12477;DHT22;6303;51.504;6.300;2022-08-19T15:16:22;31.20;52.20
12477;DHT22;6303;51.504;6.300;2022-08-19T15:18:54;31.20;52.10
12477;DHT22;6303;51.504;6.300;2022-08-19T15:21:23;31.20;52.20
12477;DHT22;6303;51.504;6.300;2022-08-19T15:23:51;31.20;52.40
12477;DHT22;6303;51.504;6.300;2022-08-19T15:26:19;31.20;52.60
12477;DHT22;6303;51.504;6.300;2022-08-19T15:28:46;31.10;52.70
12477;DHT22;6303;51.504;6.300;2022-08-19T15:31:17;31.10;52.80
12477;DHT22;6303;51.504;6.300;2022-08-19T15:33:44;31.10;53.10
12477;DHT22;6303;51.504;6.300;2022-08-19T15:36:13;31.10;53.30
12477;DHT22;6303;51.504;6.300;2022-08-19T15:38:41;31.10;53.40
12477;DHT22;6303;51.504;6.300;2022-08-19T15:41:17;31.10;53.60
12477;DHT22;6303;51.504;6.300;2022-08-19T15:43:52;31.10;53.70
12477;DHT22;6303;51.504;6.300;2022-08-19T15:46:22;31.20;53.90
12477;DHT22;6303;51.504;6.300;2022-08-19T15:48:51;31.20;54.00
12477;DHT22;6303;51.504;6.300;2022-08-19T15:51:21;31.10;54.10
12477;DHT22;6303;51.504;6.300;2022-08-19T15:53:48;31.20;53.90
12477;DHT22;6303;51.504;6.300;2022-08-19T15:56:15;31.10;53.90